Time;durP1;ratioP1;P1;durP2;ratioP2;P2;SDS_P1;SDS_P2;PMS_P1;PMS_P2;Temp;Humidity;BMP_temperature;BMP_pressure;BME280_temperature;BME280_humidity;BME280_pressure;Samples;Min_cycle;Max_cycle;Signal;HPM_P1;HPM_P2
2021/10/09 00:00:57;;;;;;;25.37;14.58;;;;;;;0.87;100.00;101227.47;1778017;79;21016;-59
2021/10/09 00:03:24;;;;;;;25.32;15.23;;;;;;;0.82;100.00;101219.98;1786032;79;20890;-58
2021/10/09 00:05:50;;;;;;;25.15;13.43;;;;;;;0.81;100.00;101224.94;1763806;80;20963;-58
2021/10/09 00:08:18;;;;;;;23.50;14.75;;;;;;;0.81;100.00;101224.94;1758470;81;21245;-58
2021/10/09 00:10:46;;;;;;;34.92;16.82;;;;;;;0.81;100.00;101223.62;1760172;80;20975;-59
2021/10/09 00:13:13;;;;;;;36.87;19.27;;;;;;;0.78;100.00;101222.57;1743678;81;20999;-59
2021/10/09 00:15:39;;;;;;;43.25;19.50;;;;;;;0.72;100.00;101216.58;1747022;81;21050;-56
2021/10/09 00:18:06;;;;;;;36.50;20.08;;;;;;;0.66;100.00;101218.47;1748881;81;20927;-57
2021/10/09 00:20:33;;;;;;;41.37;21.25;;;;;;;0.61;100.00;101217.59;1753158;81;21144;-58
2021/10/09 00:23:00;;;;;;;41.28;19.52;;;;;;;0.59;100.00;101219.58;1752569;81;20901;-58
2021/10/09 00:25:26;;;;;;;35.55;17.00;;;;;;;0.59;100.00;101216.94;1759477;81;20937;-58
2021/10/09 00:27:53;;;;;;;31.50;16.02;;;;;;;0.59;100.00;101212.97;1745682;80;20927;-58
2021/10/09 00:30:20;;;;;;;22.00;14.47;;;;;;;0.62;100.00;101212.17;1755338;81;20973;-58
2021/10/09 00:32:47;;;;;;;24.18;13.18;;;;;;;0.65;100.00;101213.69;1747847;81;21036;-58
2021/10/09 00:35:14;;;;;;;22.98;12.05;;;;;;;0.69;100.00;101212.42;1757750;81;21450;-58
2021/10/09 00:37:41;;;;;;;26.07;12.82;;;;;;;0.71;100.00;101209.14;1742728;80;20845;-58
2021/10/09 00:40:09;;;;;;;19.25;12.93;;;;;;;0.76;100.00;101208.67;1738428;81;20909;-57
2021/10/09 00:42:35;;;;;;;19.77;12.35;;;;;;;0.76;100.00;101204.23;1753797;81;20927;-57
2021/10/09 00:45:05;;;;;;;18.70;13.40;;;;;;;0.73;100.00;101210.30;1740345;81;21148;-57
2021/10/09 00:47:33;;;;;;;19.57;12.63;;;;;;;0.70;100.00;101202.67;1756968;81;21434;-58
2021/10/09 00:49:59;;;;;;;19.50;11.90;;;;;;;0.65;100.00;101201.80;1751339;81;20888;-57
2021/10/09 00:52:26;;;;;;;24.85;13.43;;;;;;;0.63;100.00;101198.46;1754898;81;20988;-57
2021/10/09 00:54:52;;;;;;;21.93;13.85;;;;;;;0.61;100.00;101204.38;1762328;81;21383;-57
2021/10/09 00:57:19;;;;;;;21.95;13.28;;;;;;;0.60;100.00;101207.52;1776661;79;21061;-58
2021/10/09 00:59:46;;;;;;;18.65;11.12;;;;;;;0.63;100.00;101202.42;1778452;79;20991;-58
2021/10/09 01:02:12;;;;;;;18.27;11.55;;;;;;;0.71;100.00;101200.36;1726014;81;20861;-58
2021/10/09 01:04:39;;;;;;;18.25;11.83;;;;;;;0.74;100.00;101197.44;1766739;79;21371;-58
2021/10/09 01:07:07;;;;;;;25.82;11.60;;;;;;;0.76;100.00;101196.77;1757413;81;20937;-58
2021/10/09 01:09:35;;;;;;;15.78;9.63;;;;;;;0.74;100.00;101192.16;1797173;79;21838;-58
2021/10/09 01:12:04;;;;;;;16.20;11.12;;;;;;;0.72;100.00;101191.47;1797035;79;20950;-58
2021/10/09 01:14:31;;;;;;;16.00;10.63;;;;;;;0.70;100.00;101192.92;1759379;81;20873;-58
2021/10/09 01:16:59;;;;;;;15.32;10.68;;;;;;;0.70;100.00;101189.45;1797601;79;20852;-58
2021/10/09 01:19:26;;;;;;;13.45;10.28;;;;;;;0.69;100.00;101189.13;1782762;79;20914;-59
2021/10/09 01:21:54;;;;;;;18.75;11.15;;;;;;;0.72;100.00;101179.58;1755083;81;21116;-58
2021/10/09 01:24:22;;;;;;;14.15;11.12;;;;;;;0.70;100.00;101182.35;1793759;79;27198;-58
2021/10/09 01:26:50;;;;;;;15.32;10.20;;;;;;;0.72;100.00;101179.58;1749410;81;20996;-58
2021/10/09 01:29:19;;;;;;;30.77;11.33;;;;;;;0.70;100.00;101176.24;1766023;79;21379;-58
2021/10/09 01:31:47;;;;;;;16.15;12.58;;;;;;;0.68;100.00;101170.27;1774670;79;21386;-58
2021/10/09 01:34:24;;;;;;;23.47;12.73;;;;;;;0.67;100.00;101169.45;1792535;79;21115;-58
2021/10/09 01:36:52;;;;;;;15.98;11.60;;;;;;;0.66;100.00;101165.13;1787934;79;21461;-58
2021/10/09 01:39:21;;;;;;;;;;;;;;;0.67;100.00;101169.45;1769161;79;21508;-58
2021/10/09 01:41:50;;;;;;;16.48;11.25;;;;;;;0.68;100.00;101173.73;1775366;79;20115;-59
2021/10/09 01:44:18;;;;;;;13.22;10.98;;;;;;;0.64;100.00;101177.68;1773931;79;20967;-58
2021/10/09 01:46:46;;;;;;;15.93;10.98;;;;;;;0.60;100.00;101173.66;1783281;79;21785;-58
2021/10/09 01:49:13;;;;;;;15.88;11.03;;;;;;;0.56;100.00;101165.68;1782456;79;21002;-58
2021/10/09 01:51:39;;;;;;;22.50;11.83;;;;;;;0.57;100.00;101173.97;1768702;79;20923;-58
2021/10/09 01:54:08;;;;;;;18.15;13.20;;;;;;;0.54;100.00;101168.95;1772831;78;20948;-59
2021/10/09 01:56:34;;;;;;;17.62;11.73;;;;;;;0.52;100.00;101170.94;1825262;77;21556;-57
2021/10/09 01:59:01;;;;;;;14.83;12.28;;;;;;;0.46;100.00;101172.34;1827815;77;21073;-58
2021/10/09 02:01:33;;;;;;;19.95;12.40;;;;;;;0.41;100.00;101173.28;1842907;77;20873;-58
2021/10/09 02:04:01;;;;;;;17.12;12.25;;;;;;;0.36;100.00;101168.44;1821568;77;21328;-58
2021/10/09 02:06:29;;;;;;;29.65;15.15;;;;;;;0.31;100.00;101172.02;1836951;77;20904;-58
2021/10/09 02:08:56;;;;;;;30.80;15.83;;;;;;;0.25;100.00;101170.47;1802015;77;20956;-58
2021/10/09 02:11:27;;;;;;;24.85;15.30;;;;;;;0.18;100.00;101172.36;1833919;77;21692;-58
2021/10/09 02:14:03;;;;;;;25.50;14.55;;;;;;;0.14;100.00;101167.02;1824545;77;21395;-58
2021/10/09 02:24:42;;;;;;;21.52;14.43;;;;;;;0.10;100.00;101168.31;1800884;77;21978;-58
2021/10/09 02:26:55;;;;;;;25.90;14.83;;;;;;;0.05;100.00;101167.92;1800062;78;21384;-58
2021/10/09 02:29:22;;;;;;;28.20;14.47;;;;;;;0.05;100.00;101173.20;1819685;77;20884;-58
2021/10/09 02:31:50;;;;;;;24.60;14.23;;;;;;;0.07;100.00;101167.75;1833805;77;20953;-57
2021/10/09 02:34:17;;;;;;;26.55;14.23;;;;;;;0.06;100.00;101165.61;1796022;77;20912;-58
2021/10/09 02:36:43;;;;;;;24.25;13.75;;;;;;;0.06;100.00;101162.97;1835354;77;21717;-57
2021/10/09 02:39:10;;;;;;;23.07;12.43;;;;;;;0.03;100.00;101164.59;1827187;77;20886;-58
2021/10/09 02:41:38;;;;;;;24.40;14.63;;;;;;;0.01;100.00;101163.89;1840665;77;20865;-57
2021/10/09 02:48:16;;;;;;;35.17;15.68;;;;;;;-0.03;100.00;101162.52;1830517;76;20975;-58
2021/10/09 04:18:16;;;;;;;21.45;11.38;;;;;;;-0.57;100.00;101164.06;1685091;83;20996;-57
2021/10/09 04:20:43;;;;;;;18.52;12.03;;;;;;;-0.61;100.00;101160.03;1679108;84;20983;-57
2021/10/09 04:23:10;;;;;;;19.07;12.47;;;;;;;-0.63;100.00;101165.47;1679362;85;21120;-58
2021/10/09 05:36:32;;;;;;;25.30;13.08;;;;;;;1.48;100.00;101207.69;1641188;84;20985;-58
2021/10/09 05:38:58;;;;;;;24.18;14.38;;;;;;;1.67;100.00;101196.58;1625482;87;21153;-58
2021/10/09 05:41:26;;;;;;;23.77;14.55;;;;;;;1.85;100.00;101199.99;1625137;86;21474;-58
2021/10/09 05:43:55;;;;;;;25.82;13.50;;;;;;;1.98;100.00;101199.56;1648124;85;21055;-59
2021/10/09 05:46:23;;;;;;;24.75;13.35;;;;;;;2.10;100.00;101206.25;1646640;85;21063;-59
2021/10/09 05:48:52;;;;;;;25.50;14.65;;;;;;;2.26;100.00;101204.69;1650693;86;21043;-58
2021/10/09 05:51:28;;;;;;;17.45;11.38;;;;;;;2.48;100.00;101206.77;1651413;85;20989;-59
2021/10/09 05:56:43;;;;;;;22.27;15.05;;;;;;;2.76;100.00;101211.30;1657063;86;21441;-58
2021/10/09 05:59:26;;;;;;;20.17;13.43;;;;;;;2.98;100.00;101219.65;1648757;86;21099;-58
2021/10/09 07:01:24;;;;;;;20.10;14.07;;;;;;;6.91;87.39;101251.09;1643166;86;21502;-59
2021/10/09 07:03:51;;;;;;;22.05;11.85;;;;;;;7.30;85.38;101246.20;1638198;86;20980;-59
2021/10/09 07:06:19;;;;;;;21.15;12.95;;;;;;;7.46;81.40;101249.63;1615066;87;21044;-59
2021/10/09 07:08:53;;;;;;;25.72;14.70;;;;;;;7.61;80.34;101250.37;1634403;86;20961;-59
2021/10/09 07:11:34;;;;;;;17.57;12.40;;;;;;;7.86;80.52;101248.61;1601962;87;21142;-57
2021/10/09 07:14:00;;;;;;;17.45;11.12;;;;;;;7.84;79.12;101249.31;1599968;89;20971;-58
2021/10/09 07:16:27;;;;;;;17.73;12.40;;;;;;;7.87;78.39;101251.61;1598895;89;21066;-58
2021/10/09 07:18:54;;;;;;;24.20;14.07;;;;;;;8.04;76.80;101240.94;1599900;89;21061;-57
2021/10/09 07:21:21;;;;;;;21.10;14.10;;;;;;;8.11;74.60;101255.18;1599977;89;21086;-58
2021/10/09 07:23:47;;;;;;;25.75;14.60;;;;;;;8.47;72.58;101254.68;1593880;89;21143;-58
2021/10/09 07:26:15;;;;;;;31.73;18.00;;;;;;;8.66;70.93;101257.15;1598409;89;21575;-58
2021/10/09 07:28:42;;;;;;;32.60;14.38;;;;;;;8.68;71.08;101262.61;1598287;89;21504;-59
2021/10/09 07:31:09;;;;;;;27.10;17.02;;;;;;;8.73;70.13;101262.84;1600471;87;21111;-59
2021/10/09 07:33:35;;;;;;;31.57;18.05;;;;;;;8.96;71.48;101261.16;1598559;87;21038;-58
2021/10/09 07:36:03;;;;;;;28.75;18.05;;;;;;;9.31;69.57;101262.41;1621686;87;21079;-59
2021/10/09 07:38:30;;;;;;;40.95;20.77;;;;;;;9.71;67.96;101264.30;1600058;88;21032;-59
2021/10/09 07:40:57;;;;;;;33.75;18.23;;;;;;;10.14;65.22;101263.31;1608177;88;21040;-59
2021/10/09 07:43:24;;;;;;;26.05;16.40;;;;;;;10.16;60.92;101262.59;1600101;88;21077;-61
2021/10/09 07:45:51;;;;;;;21.00;12.37;;;;;;;10.09;61.45;101259.09;1602060;88;21531;-59
2021/10/09 07:48:18;;;;;;;14.63;10.13;;;;;;;10.15;61.10;101266.32;1636073;87;21145;-59
2021/10/09 07:50:45;;;;;;;18.62;10.60;;;;;;;10.18;60.06;101254.34;1657102;86;21385;-59
2021/10/09 07:53:12;;;;;;;16.85;9.08;;;;;;;10.04;60.88;101255.72;1642363;86;20982;-59
2021/10/09 07:55:38;;;;;;;17.62;9.95;;;;;;;10.18;58.18;101263.20;1657402;85;20945;-60
2021/10/09 07:58:05;;;;;;;18.70;8.55;;;;;;;10.44;54.80;101261.55;1641935;86;21079;-59
2021/10/09 08:00:31;;;;;;;10.30;7.30;;;;;;;10.33;51.53;101255.47;1637847;87;21884;-59
2021/10/09 08:03:03;;;;;;;15.48;7.70;;;;;;;10.30;52.38;101260.22;1636166;87;21462;-60
2021/10/09 08:05:26;;;;;;;23.95;8.63;;;;;;;10.41;50.15;101253.89;1634402;86;20901;-59
2021/10/09 08:07:53;;;;;;;20.30;8.40;;;;;;;10.69;50.26;101259.80;1639818;86;20950;-59
2021/10/09 08:10:19;;;;;;;14.03;6.72;;;;;;;10.85;48.48;101257.66;1639222;86;20959;-59
2021/10/09 08:12:46;;;;;;;10.20;7.20;;;;;;;11.04;47.23;101257.26;1635311;86;21617;-60
2021/10/09 08:15:13;;;;;;;12.50;6.50;;;;;;;11.09;46.30;101253.41;1642999;86;21025;-63
2021/10/09 08:17:40;;;;;;;17.23;7.85;;;;;;;10.75;45.87;101252.73;1645889;86;21023;-59
2021/10/09 08:20:08;;;;;;;14.87;6.45;;;;;;;10.96;46.63;101249.45;1640148;87;21010;-60
2021/10/09 08:22:39;;;;;;;10.60;6.17;;;;;;;11.03;45.94;101259.12;1641040;86;20998;-60
2021/10/09 08:41:10;;;;;;;15.38;7.40;;;;;;;11.87;40.73;101259.80;1645506;86;20913;-59
2021/10/09 08:43:36;;;;;;;14.33;8.38;;;;;;;11.82;40.61;101247.50;1656264;86;20999;-58
2021/10/09 08:46:03;;;;;;;16.82;7.20;;;;;;;11.65;40.51;101241.03;1645178;86;21046;-58
2021/10/09 08:48:40;;;;;;;8.18;4.97;;;;;;;11.91;40.10;101254.28;1650952;84;20981;-60
2021/10/09 08:50:58;;;;;;;;;;;;;;;12.13;39.91;101253.35;1655657;86;21143;-60
2021/10/09 08:53:39;;;;;;;6.95;5.10;;;;;;;12.26;39.44;101254.27;1629239;87;20125;-60
2021/10/09 08:56:06;;;;;;;23.50;10.08;;;;;;;12.12;37.87;101247.65;1627966;86;20934;-58
2021/10/09 08:58:39;;;;;;;18.30;9.75;;;;;;;12.15;38.40;101249.92;1641752;86;21038;-60
2021/10/09 09:01:20;;;;;;;9.40;5.08;;;;;;;12.32;38.63;101254.70;1616789;88;21028;-59
2021/10/09 09:04:24;;;;;;;7.30;3.92;;;;;;;12.40;37.42;101243.66;1626505;86;21839;-60
2021/10/09 09:26:05;;;;;;;15.70;7.20;;;;;;;13.14;33.23;101251.63;1647992;84;21127;-59
2021/10/09 09:38:54;;;;;;;12.65;4.70;;;;;;;12.85;32.39;101251.38;1626553;85;21099;-58
2021/10/09 09:41:24;;;;;;;10.18;4.45;;;;;;;12.79;32.46;101241.00;1624122;87;21070;-58
2021/10/09 09:43:58;;;;;;;11.48;7.37;;;;;;;12.93;33.31;101246.20;1614930;87;21127;-58
2021/10/09 09:46:29;;;;;;;8.88;4.28;;;;;;;13.05;32.92;101242.49;1627459;87;21025;-58
2021/10/09 09:48:54;;;;;;;13.60;8.85;;;;;;;13.01;31.88;101239.98;1638314;87;20984;-58
2021/10/09 09:51:22;;;;;;;6.83;4.95;;;;;;;13.06;32.06;101250.89;1649234;87;21001;-58
2021/10/09 09:53:50;;;;;;;8.15;4.03;;;;;;;13.02;31.39;101238.91;1649478;87;20941;-57
2021/10/09 09:56:17;;;;;;;11.88;6.25;;;;;;;13.02;32.20;101242.14;1649317;87;21786;-58
2021/10/09 09:58:47;;;;;;;21.27;11.22;;;;;;;12.90;32.44;101240.73;1649421;87;21583;-58
2021/10/09 10:01:14;;;;;;;17.10;8.13;;;;;;;13.05;30.81;101241.14;1648906;86;20901;-59
2021/10/09 10:03:46;;;;;;;5.90;4.20;;;;;;;13.16;31.22;101235.52;1648909;87;21373;-60
2021/10/09 10:06:13;;;;;;;10.90;3.62;;;;;;;13.28;30.67;101229.66;1649320;87;21012;-60
2021/10/09 10:08:41;;;;;;;6.50;5.00;;;;;;;13.49;29.72;101230.98;1649328;87;21161;-59
2021/10/09 10:11:10;;;;;;;9.98;4.40;;;;;;;13.27;30.06;101220.44;1628903;87;21384;-60
2021/10/09 10:13:38;;;;;;;5.45;3.05;;;;;;;13.36;30.41;101226.34;1648854;87;20985;-60
2021/10/09 10:16:10;;;;;;;6.03;3.60;;;;;;;13.46;29.31;101228.75;1649411;87;21024;-60
2021/10/09 10:18:49;;;;;;;8.55;5.35;;;;;;;13.54;29.35;101234.33;1649315;87;21032;-60
2021/10/09 10:21:18;;;;;;;21.65;5.87;;;;;;;13.55;28.73;101223.85;1649193;87;21218;-60
2021/10/09 10:23:46;;;;;;;9.33;4.10;;;;;;;13.93;29.23;101224.73;1649280;87;21009;-60
2021/10/09 10:26:28;;;;;;;8.63;4.42;;;;;;;13.91;28.63;101220.13;1649318;86;20897;-58
2021/10/09 10:29:00;;;;;;;15.90;7.05;;;;;;;13.65;28.84;101216.53;1649189;87;21380;-58
2021/10/09 10:31:29;;;;;;;7.45;4.97;;;;;;;13.97;29.46;101223.75;1649152;87;21408;-60
2021/10/09 10:34:24;;;;;;;8.10;5.17;;;;;;;13.80;28.83;101226.33;1649202;87;21139;-59
2021/10/09 10:36:50;;;;;;;10.68;4.10;;;;;;;14.01;27.72;101218.16;1649280;87;20878;-59
2021/10/09 10:39:20;;;;;;;4.08;3.47;;;;;;;14.31;28.66;101215.84;1655620;85;20987;-60
2021/10/09 10:42:04;;;;;;;13.28;5.00;;;;;;;14.39;27.48;101205.20;1652068;87;21473;-59
2021/10/09 10:45:01;;;;;;;9.05;3.65;;;;;;;13.96;28.66;101211.29;1651911;85;20939;-59
2021/10/09 10:47:51;;;;;;;12.43;4.97;;;;;;;13.85;28.52;101199.98;1651172;87;21107;-59
2021/10/09 10:50:52;;;;;;;7.35;4.75;;;;;;;13.44;28.74;101193.63;1651738;85;20940;-59
2021/10/09 10:53:22;;;;;;;10.13;5.20;;;;;;;13.52;29.13;101205.41;1651356;85;20888;-59
2021/10/09 10:56:12;;;;;;;5.53;4.17;;;;;;;13.46;29.13;101210.41;1650458;87;20961;-59
2021/10/09 10:58:39;;;;;;;5.87;3.58;;;;;;;13.82;28.50;101212.08;1648815;87;21022;-59
2021/10/09 11:01:23;;;;;;;7.20;3.80;;;;;;;13.97;28.82;101202.16;1651907;87;21670;-59
2021/10/09 11:03:55;;;;;;;11.00;4.20;;;;;;;14.23;28.17;101206.21;1652108;87;20967;-58
2021/10/09 11:06:25;;;;;;;8.05;4.92;;;;;;;13.96;27.09;101203.19;1673974;85;20946;-59
2021/10/09 12:13:12;;;;;;;11.15;5.85;;;;;;;14.85;26.30;101161.00;1719668;82;20961;-60
2021/10/09 12:16:36;;;;;;;8.88;6.08;;;;;;;14.46;27.05;101141.87;1715896;81;20956;-59
2021/10/09 12:22:45;;;;;;;17.90;4.97;;;;;;;13.86;28.15;101150.34;1735489;81;20921;-59
2021/10/09 12:25:19;;;;;;;;;;;;;;;14.06;28.62;101145.91;1745518;81;20938;-60
2021/10/09 12:27:54;;;;;;;5.08;3.60;;;;;;;13.80;27.81;101144.55;1728842;83;20439;-60
2021/10/09 12:30:21;;;;;;;8.65;5.90;;;;;;;13.53;28.54;101146.38;1738921;81;21191;-59
2021/10/09 12:33:04;;;;;;;10.60;4.95;;;;;;;13.65;29.02;101150.43;1726841;83;20959;-59
2021/10/09 12:44:23;;;;;;;19.07;11.85;;;;;;;13.41;30.60;101142.85;1724231;81;21451;-59
2021/10/09 12:46:51;;;;;;;44.85;19.85;;;;;;;13.44;30.64;101138.33;1680513;84;20980;-59
2021/10/09 12:49:18;;;;;;;24.23;12.98;;;;;;;13.66;30.62;101138.56;1721658;83;20894;-59
2021/10/09 12:51:44;;;;;;;16.62;8.13;;;;;;;13.43;30.37;101133.47;1721940;83;21423;-59
2021/10/09 12:54:16;;;;;;;73.17;34.43;;;;;;;13.19;30.58;101138.52;1721941;83;21467;-59
2021/10/09 12:56:41;;;;;;;;;;;;;;;13.01;31.05;101138.90;1724147;83;21642;-59
2021/10/09 12:59:08;;;;;;;16.17;8.17;;;;;;;12.91;31.74;101122.98;1722215;83;21199;-59
2021/10/09 13:01:35;;;;;;;46.92;24.20;;;;;;;12.91;31.69;101127.87;1721763;83;20953;-59
2021/10/09 13:04:01;;;;;;;45.80;23.27;;;;;;;12.79;32.62;101136.45;1722139;83;21424;-59
2021/10/09 13:06:28;;;;;;;24.23;13.25;;;;;;;12.99;32.10;101136.95;1721580;83;21006;-59
2021/10/09 13:08:54;;;;;;;20.20;10.05;;;;;;;12.92;31.74;101134.07;1722166;83;20961;-59
2021/10/09 13:11:24;;;;;;;24.20;11.38;;;;;;;12.98;31.63;101135.83;1721607;83;21125;-59
2021/10/09 13:13:49;;;;;;;21.57;7.60;;;;;;;13.12;31.37;101131.87;1729496;81;20833;-59
2021/10/09 13:16:17;;;;;;;11.55;5.40;;;;;;;13.16;31.18;101127.67;1746529;81;24973;-60
2021/10/09 13:18:44;;;;;;;7.62;5.35;;;;;;;13.09;30.88;101131.00;1745202;82;21453;-59
2021/10/09 13:21:11;;;;;;;11.75;7.95;;;;;;;13.09;30.65;101135.86;1752121;82;21013;-59
2021/10/09 13:23:38;;;;;;;11.18;5.35;;;;;;;12.97;30.07;101136.36;1713269;83;21120;-59
2021/10/09 13:26:05;;;;;;;38.28;17.17;;;;;;;12.82;29.72;101131.94;1768738;80;21409;-58
2021/10/09 13:28:32;;;;;;;46.95;20.95;;;;;;;12.85;29.92;101124.20;1752753;81;20915;-59
2021/10/09 13:30:58;;;;;;;46.92;26.40;;;;;;;13.01;29.70;101120.56;1760167;81;20931;-59
2021/10/09 13:33:25;;;;;;;28.95;13.65;;;;;;;12.95;30.24;101129.56;1741073;82;20978;-58
2021/10/09 13:36:33;;;;;;;37.73;19.10;;;;;;;12.80;29.28;101119.22;1773215;80;21086;-58
2021/10/09 13:38:59;;;;;;;7.12;4.12;;;;;;;12.76;30.21;101122.06;1741697;81;20859;-60
2021/10/09 13:41:26;;;;;;;25.65;9.95;;;;;;;12.59;30.18;101119.20;1745456;82;21506;-60
2021/10/09 13:43:53;;;;;;;14.28;7.65;;;;;;;12.41;30.97;101118.72;1746507;82;21413;-57
2021/10/09 13:46:20;;;;;;;23.38;8.75;;;;;;;12.42;31.24;101120.35;1741531;82;20866;-59
2021/10/09 13:52:55;;;;;;;16.10;8.53;;;;;;;12.30;31.24;101120.33;1741269;82;20862;-58
2021/10/09 13:59:20;;;;;;;17.60;6.20;;;;;;;12.00;30.61;101108.14;1741208;81;21009;-58
2021/10/09 14:01:47;;;;;;;11.50;6.28;;;;;;;11.95;30.65;101107.47;1741633;82;20950;-58
2021/10/09 14:16:11;;;;;;;96.35;35.05;;;;;;;11.47;32.98;101113.55;1712069;80;20967;-58
2021/10/09 14:22:33;;;;;;;43.98;19.52;;;;;;;11.48;33.57;101111.68;1714878;82;21494;-60
2021/10/09 14:24:59;;;;;;;62.95;29.57;;;;;;;11.35;32.66;101109.41;1749402;82;20914;-58
2021/10/09 14:27:29;;;;;;;66.02;31.30;;;;;;;11.28;33.00;101114.02;1768576;80;20822;-58
2021/10/09 14:29:57;;;;;;;75.85;34.30;;;;;;;11.23;33.24;101117.89;1781240;80;20913;-57
2021/10/09 14:32:25;;;;;;;61.28;27.52;;;;;;;11.07;32.99;101117.94;1780804;80;20967;-58
2021/10/09 14:35:09;;;;;;;83.45;34.33;;;;;;;10.96;33.46;101111.91;1772934;80;21209;-58
2021/10/09 14:37:36;;;;;;;138.03;62.83;;;;;;;10.75;33.73;101115.77;1727572;81;20999;-59
2021/10/09 14:40:04;;;;;;;483.95;222.48;;;;;;;10.44;33.98;101112.56;1727368;83;20929;-58
2021/10/09 14:42:30;;;;;;;506.13;231.23;;;;;;;10.22;34.82;101121.41;1714272;83;20992;-58
2021/10/09 14:44:59;;;;;;;351.73;151.93;;;;;;;9.99;35.36;101111.98;1704537;83;21032;-58
2021/10/09 14:47:44;;;;;;;183.97;77.92;;;;;;;9.90;35.60;101108.39;1726648;81;21100;-59
2021/10/09 14:53:50;;;;;;;253.00;113.47;;;;;;;9.74;35.47;101105.67;1714791;83;21012;-58
2021/10/09 15:19:06;;;;;;;126.97;60.92;;;;;;;8.49;37.85;101102.78;1743259;81;20941;-60
2021/10/09 15:21:33;;;;;;;69.92;31.62;;;;;;;8.41;38.46;101108.33;1743741;81;21036;-58
2021/10/09 15:23:59;;;;;;;55.25;26.25;;;;;;;8.27;38.78;101104.22;1727796;82;21049;-59
2021/10/09 15:26:25;;;;;;;42.50;20.77;;;;;;;8.16;39.13;101104.81;1690325;84;20961;-59
2021/10/09 15:28:53;;;;;;;36.05;18.32;;;;;;;8.07;39.25;101099.31;1739088;81;39316;-60
2021/10/09 15:31:19;;;;;;;52.93;25.88;;;;;;;8.00;39.75;101097.13;1728106;81;20886;-59
2021/10/09 15:33:46;;;;;;;43.38;22.22;;;;;;;7.92;40.08;101106.14;1745094;82;20905;-58
2021/10/09 15:36:13;;;;;;;29.77;15.85;;;;;;;7.83;40.54;101104.13;1727511;83;21031;-58
2021/10/09 15:38:39;;;;;;;40.65;17.75;;;;;;;7.75;40.37;101104.30;1729600;81;21122;-58
2021/10/09 15:41:06;;;;;;;32.20;15.32;;;;;;;7.73;41.10;101106.34;1741358;81;21451;-59
2021/10/09 15:43:32;;;;;;;37.28;17.65;;;;;;;7.66;41.00;101102.80;1743377;80;20967;-60
2021/10/09 15:45:59;;;;;;;39.90;19.32;;;;;;;7.63;41.36;101105.88;1763458;81;20997;-59
2021/10/09 15:48:25;;;;;;;53.13;24.75;;;;;;;7.54;41.73;101102.52;1754583;81;20963;-58
2021/10/09 15:50:52;;;;;;;62.50;30.15;;;;;;;7.45;41.75;101108.54;1758125;81;21072;-59
2021/10/09 15:53:20;;;;;;;60.83;26.52;;;;;;;7.50;41.74;101113.30;1766842;81;21149;-58
2021/10/09 15:55:47;;;;;;;46.77;23.98;;;;;;;7.42;41.94;101114.28;1765155;81;20908;-59
2021/10/09 15:58:14;;;;;;;40.75;20.40;;;;;;;7.34;42.84;101113.59;1743742;81;20956;-58
2021/10/09 16:00:40;;;;;;;43.73;21.25;;;;;;;7.27;42.43;101114.86;1725411;81;21403;-58
2021/10/09 16:03:06;;;;;;;33.65;18.07;;;;;;;7.21;42.86;101115.65;1720364;81;20991;-58
2021/10/09 16:05:33;;;;;;;41.23;21.48;;;;;;;7.15;42.92;101108.40;1725678;82;21087;-58
2021/10/09 16:08:00;;;;;;;51.23;28.23;;;;;;;7.07;43.88;101113.37;1723768;82;20856;-59
2021/10/09 16:10:26;;;;;;;89.20;46.65;;;;;;;6.94;44.25;101111.94;1725727;81;20964;-58
2021/10/09 16:12:53;;;;;;;112.60;53.98;;;;;;;6.82;44.80;101112.95;1734360;81;21092;-58
2021/10/09 16:15:21;;;;;;;140.47;67.22;;;;;;;6.67;45.14;101106.34;1727782;81;22015;-59
2021/10/09 16:17:48;;;;;;;102.65;49.80;;;;;;;6.51;45.95;101110.57;1731595;81;21124;-59
2021/10/09 16:20:14;;;;;;;150.75;70.55;;;;;;;6.30;46.29;101108.71;1712212;82;21066;-58
2021/10/09 16:22:41;;;;;;;162.25;79.12;;;;;;;6.17;47.82;101108.88;1728569;81;21078;-59
2021/10/09 16:25:08;;;;;;;168.43;74.32;;;;;;;6.03;48.23;101111.53;1719783;81;21445;-58
2021/10/09 16:27:36;;;;;;;148.97;69.20;;;;;;;5.96;47.96;101110.14;1703451;81;20960;-59
2021/10/09 16:30:03;;;;;;;163.43;71.67;;;;;;;5.92;48.45;101115.47;1692703;82;21087;-59
2021/10/09 16:32:29;;;;;;;175.82;79.60;;;;;;;5.82;48.66;101114.94;1724433;82;20929;-58
2021/10/09 16:34:56;;;;;;;164.32;72.87;;;;;;;5.73;49.44;101113.70;1693913;84;20987;-59
2021/10/09 16:37:23;;;;;;;127.02;60.58;;;;;;;5.67;49.41;101113.60;1693814;84;21049;-59
2021/10/09 16:39:50;;;;;;;143.20;65.62;;;;;;;5.61;49.96;101112.50;1693842;84;20975;-58
2021/10/09 16:42:16;;;;;;;131.30;67.92;;;;;;;5.57;50.58;101115.20;1693925;84;21186;-57
2021/10/09 16:44:42;;;;;;;93.92;48.35;;;;;;;5.46;51.11;101108.47;1693614;84;20988;-58
2021/10/09 16:47:09;;;;;;;107.45;53.95;;;;;;;5.35;51.62;101115.59;1693963;84;20971;-57
2021/10/09 16:49:36;;;;;;;106.95;53.05;;;;;;;5.27;51.54;101111.17;1714791;83;20933;-58
2021/10/09 16:52:04;;;;;;;102.45;47.35;;;;;;;5.20;52.15;101118.73;1724450;82;21443;-57
2021/10/09 16:54:31;;;;;;;107.58;54.10;;;;;;;5.13;52.67;101115.45;1729610;83;21133;-58
2021/10/09 16:56:58;;;;;;;109.95;51.35;;;;;;;5.03;53.95;101113.54;1723941;83;20834;-59
2021/10/09 16:59:24;;;;;;;120.47;58.90;;;;;;;4.97;53.47;101118.23;1729791;83;20925;-59
2021/10/09 17:01:51;;;;;;;175.53;80.50;;;;;;;4.95;53.88;101121.59;1707224;83;20968;-58
2021/10/09 17:04:20;;;;;;;237.90;112.90;;;;;;;4.93;54.24;101123.61;1715844;81;21008;-58
2021/10/09 17:06:47;;;;;;;185.12;90.42;;;;;;;4.84;54.81;101124.16;1723643;81;21155;-59
2021/10/09 17:09:14;;;;;;;189.32;83.05;;;;;;;4.69;55.06;101123.27;1704661;83;21025;-57
2021/10/09 17:11:42;;;;;;;188.12;86.78;;;;;;;4.64;55.12;101122.47;1711364;82;21007;-59
2021/10/09 17:14:09;;;;;;;171.90;74.72;;;;;;;4.62;56.24;101129.80;1706356;82;20987;-58
2021/10/09 17:16:37;;;;;;;164.82;66.12;;;;;;;4.59;56.29;101128.00;1687893;83;21028;-59
2021/10/09 17:19:04;;;;;;;154.80;66.55;;;;;;;4.48;56.56;101123.89;1694129;82;21170;-58
2021/10/09 17:21:37;;;;;;;211.65;93.55;;;;;;;4.41;57.13;101129.10;1727780;81;21078;-58
2021/10/09 17:24:05;;;;;;;192.13;81.10;;;;;;;4.36;58.13;101127.47;1670584;84;21465;-59
2021/10/09 17:26:32;;;;;;;229.47;95.07;;;;;;;4.26;58.14;101123.70;1702182;81;21072;-59
2021/10/09 17:28:58;;;;;;;213.82;88.67;;;;;;;4.19;58.88;101124.06;1709618;82;21008;-59
2021/10/09 17:31:25;;;;;;;200.35;83.35;;;;;;;4.11;58.87;101121.93;1665424;84;21134;-59
2021/10/09 17:33:52;;;;;;;191.60;78.37;;;;;;;4.06;59.21;101123.27;1694463;84;20929;-59
2021/10/09 17:36:19;;;;;;;214.93;86.72;;;;;;;4.03;59.31;101124.95;1700514;83;21035;-58
2021/10/09 17:38:48;;;;;;;219.00;89.00;;;;;;;4.01;59.92;101118.15;1665085;86;21071;-59
2021/10/09 17:41:15;;;;;;;;;;;;;;;3.97;60.57;101120.34;1707746;83;20992;-58
2021/10/09 17:43:42;;;;;;;220.20;90.72;;;;;;;3.93;61.68;101116.36;1725466;83;21203;-58
2021/10/09 17:46:09;;;;;;;241.50;96.22;;;;;;;3.88;61.95;101119.21;1737592;81;20940;-58
2021/10/09 17:48:35;;;;;;;236.25;103.35;;;;;;;3.82;63.06;101120.70;1731749;83;21469;-58
2021/10/09 17:51:03;;;;;;;252.75;106.67;;;;;;;3.79;62.74;101121.05;1729363;82;20886;-59
2021/10/09 17:53:30;;;;;;;190.62;80.30;;;;;;;3.73;63.19;101119.09;1734368;81;21040;-59
2021/10/09 17:55:58;;;;;;;217.90;88.07;;;;;;;3.64;62.67;101120.92;1726919;82;21157;-59
2021/10/09 17:58:25;;;;;;;232.05;101.00;;;;;;;3.68;63.04;101115.61;1704109;84;21424;-58
2021/10/09 18:00:54;;;;;;;229.05;94.45;;;;;;;3.67;63.13;101119.25;1703826;83;21475;-59
2021/10/09 18:03:21;;;;;;;229.82;90.05;;;;;;;3.65;63.81;101115.45;1719665;81;21431;-59
2021/10/09 18:05:48;;;;;;;248.90;98.40;;;;;;;3.51;64.11;101113.50;1723945;81;20917;-58
2021/10/09 18:08:16;;;;;;;206.72;87.00;;;;;;;3.39;65.83;101110.86;1722122;81;21081;-61